Time;durP1;ratioP1;P1;durP2;ratioP2;P2;SDS_P1;SDS_P2;PMS_P1;PMS_P2;Temp;Humidity;BMP_temperature;BMP_pressure;BME280_temperature;BME280_humidity;BME280_pressure;Samples;Min_cycle;Max_cycle;Signal;HPM_P1;HPM_P2
2022/11/23 00:00:40;;;;;;;1.75;1.20;;;;;;;5.60;100.00;99590.84;6201451;28;20054;-74
2022/11/23 00:03:42;;;;;;;2.05;1.10;;;;;;;5.60;100.00;99584.78;6201415;28;20498;-74
2022/11/23 00:06:44;;;;;;;2.10;1.13;;;;;;;5.61;100.00;99583.88;6201538;28;20065;-73
2022/11/23 00:09:46;;;;;;;2.60;1.23;;;;;;;5.61;100.00;99586.47;6201274;28;20046;-74
2022/11/23 00:12:48;;;;;;;5.65;1.25;;;;;;;5.58;100.00;99582.25;6201620;28;20422;-75
2022/11/23 00:15:50;;;;;;;5.50;1.08;;;;;;;5.56;100.00;99588.47;6200750;28;20054;-74
2022/11/23 00:18:53;;;;;;;3.92;1.48;;;;;;;5.53;100.00;99584.25;6200950;28;20054;-74
2022/11/23 00:21:54;;;;;;;1.77;1.00;;;;;;;5.52;100.00;99584.34;6200951;28;20050;-74
2022/11/23 00:24:56;;;;;;;3.90;1.25;;;;;;;5.55;100.00;99589.41;6200562;28;20410;-74
2022/11/23 00:27:57;;;;;;;5.20;1.10;;;;;;;5.53;100.00;99589.47;6201414;28;20058;-74
2022/11/23 00:31:00;;;;;;;2.47;1.33;;;;;;;5.51;100.00;99586.13;6200980;28;20055;-74
2022/11/23 00:34:02;;;;;;;2.30;1.10;;;;;;;5.49;100.00;99589.69;6200902;28;20055;-74
2022/11/23 00:37:03;;;;;;;1.88;1.10;;;;;;;5.47;100.00;99587.19;6201040;28;20065;-74
2022/11/23 00:40:06;;;;;;;6.43;1.77;;;;;;;5.45;100.00;99585.56;6200532;28;20049;-74
2022/11/23 00:43:08;;;;;;;3.45;1.65;;;;;;;5.43;100.00;99585.66;6200571;28;20054;-73
2022/11/23 00:46:14;;;;;;;1.90;1.20;;;;;;;5.42;100.00;99576.16;6200267;28;20050;-75
2022/11/23 00:49:15;;;;;;;3.58;1.23;;;;;;;5.39;100.00;99573.69;6200867;28;20050;-74
2022/11/23 00:52:17;;;;;;;2.15;1.33;;;;;;;5.39;100.00;99576.31;6200286;28;20062;-74
2022/11/23 00:55:18;;;;;;;2.70;1.17;;;;;;;5.41;100.00;99584.91;6199780;28;20426;-73
2022/11/23 00:58:20;;;;;;;1.48;1.13;;;;;;;5.42;100.00;99578.75;6199989;28;20054;-74
2022/11/23 01:01:25;;;;;;;2.17;1.70;;;;;;;5.43;100.00;99590.03;6200075;28;20053;-74
2022/11/23 01:04:28;;;;;;;1.25;1.10;;;;;;;5.38;100.00;99582.44;6199912;28;20049;-74
2022/11/23 01:07:30;;;;;;;7.65;1.27;;;;;;;5.41;100.00;99584.06;6200039;28;20450;-74
2022/11/23 01:10:32;;;;;;;3.30;1.33;;;;;;;5.42;100.00;99589.19;6200140;28;20069;-74
2022/11/23 01:13:33;;;;;;;2.80;0.82;;;;;;;5.41;100.00;99584.91;6200142;28;20059;-74
2022/11/23 01:16:38;;;;;;;5.45;0.82;;;;;;;5.42;100.00;99581.38;6199738;28;20046;-74
2022/11/23 01:19:39;;;;;;;1.40;1.23;;;;;;;5.45;100.00;99585.56;6199543;28;20403;-74
2022/11/23 01:22:40;;;;;;;3.20;1.05;;;;;;;5.48;100.00;99588.03;6200000;28;20055;-74
2022/11/23 01:25:42;;;;;;;3.28;0.80;;;;;;;5.49;100.00;99589.69;6199239;28;20429;-74
2022/11/23 01:28:44;;;;;;;1.50;0.93;;;;;;;5.49;100.00;99587.94;6200109;28;20051;-74
2022/11/23 01:31:46;;;;;;;6.95;1.65;;;;;;;5.49;100.00;99585.31;6199299;28;20062;-74
2022/11/23 01:34:48;;;;;;;3.15;1.25;;;;;;;5.52;100.00;99589.56;6199270;28;20521;-74
2022/11/23 01:37:49;;;;;;;2.75;1.55;;;;;;;5.52;100.00;99597.38;6199477;28;20054;-73
2022/11/23 01:40:51;;;;;;;1.48;0.82;;;;;;;5.53;100.00;99594.69;6199258;28;20050;-74
2022/11/23 01:43:53;;;;;;;2.45;1.13;;;;;;;5.54;100.00;99598.13;6199334;28;20051;-73
2022/11/23 01:46:58;;;;;;;1.10;0.82;;;;;;;5.57;100.00;99600.59;6198999;28;20054;-73
2022/11/23 01:49:59;;;;;;;1.98;1.10;;;;;;;5.59;100.00;99601.38;6199274;28;20050;-74
2022/11/23 01:53:01;;;;;;;1.45;1.20;;;;;;;5.61;100.00;99604.72;6198947;28;20061;-73
2022/11/23 01:56:05;;;;;;;1.92;1.35;;;;;;;5.63;100.00;99600.25;6199129;28;20057;-74
2022/11/23 01:59:12;;;;;;;1.85;1.23;;;;;;;5.63;100.00;99600.25;6198967;28;20050;-75
2022/11/23 02:02:16;;;;;;;1.63;1.05;;;;;;;5.65;100.00;99603.66;6198858;28;20057;-73
2022/11/23 02:05:22;;;;;;;1.98;0.85;;;;;;;5.64;100.00;99599.34;6197930;28;20050;-74
2022/11/23 02:08:24;;;;;;;2.33;1.50;;;;;;;5.69;100.00;99599.97;6198987;28;20046;-74
2022/11/23 02:11:25;;;;;;;1.17;0.90;;;;;;;5.70;100.00;99601.63;6198175;28;20053;-74
2022/11/23 02:14:28;;;;;;;1.85;1.13;;;;;;;5.72;100.00;99602.41;6198464;28;20046;-74
2022/11/23 02:17:30;;;;;;;1.45;0.82;;;;;;;5.72;100.00;99598.94;6198472;28;20053;-74
2022/11/23 02:20:32;;;;;;;1.52;0.93;;;;;;;5.75;100.00;99597.03;6198339;28;20518;-74
2022/11/23 02:23:42;;;;;;;0.80;0.80;;;;;;;5.79;100.00;99600.31;6198478;28;20057;-74
2022/11/23 02:26:45;;;;;;;2.40;1.00;;;;;;;5.82;100.00;99592.34;6198289;28;20077;-74
2022/11/23 02:29:48;;;;;;;1.70;1.00;;;;;;;5.83;100.00;99594.88;6198189;28;20399;-74
2022/11/23 02:32:49;;;;;;;3.38;1.33;;;;;;;5.82;100.00;99598.41;6198546;28;20138;-74
2022/11/23 02:35:53;;;;;;;1.15;1.00;;;;;;;5.84;100.00;99591.34;6198134;28;20418;-74
2022/11/23 02:38:56;;;;;;;1.70;0.93;;;;;;;5.83;100.00;99588.81;6198142;28;20573;-74
2022/11/23 02:41:59;;;;;;;4.97;1.20;;;;;;;5.84;100.00;99593.09;6197946;28;20414;-73
2022/11/23 02:45:08;;;;;;;1.58;1.02;;;;;;;5.85;100.00;99595.63;6197341;28;20054;-74
2022/11/23 02:48:09;;;;;;;2.28;1.10;;;;;;;5.85;100.00;99595.63;6198194;28;20054;-74
2022/11/23 02:51:11;;;;;;;1.38;1.02;;;;;;;5.88;100.00;99597.22;6197552;28;20046;-74
2022/11/23 02:54:12;;;;;;;0.80;0.80;;;;;;;5.91;100.00;99591.88;6185773;28;20050;-75
2022/11/23 02:57:15;;;;;;;1.63;0.90;;;;;;;5.95;100.00;99597.78;6173597;28;20514;-73
2022/11/23 03:00:18;;;;;;;5.40;1.27;;;;;;;5.98;100.00;99597.63;6173609;28;20066;-74
2022/11/23 03:03:19;;;;;;;1.23;0.95;;;;;;;6.00;100.00;99599.25;6173650;28;20047;-74
2022/11/23 03:06:21;;;;;;;0.80;0.73;;;;;;;6.00;100.00;99601.84;6173525;28;20058;-74
2022/11/23 03:09:24;;;;;;;3.92;1.27;;;;;;;5.97;100.00;99598.56;6173690;28;20178;-73
2022/11/23 03:12:27;;;;;;;1.15;0.75;;;;;;;5.95;100.00;99598.63;6173599;28;20059;-73
2022/11/23 03:15:29;;;;;;;2.85;1.10;;;;;;;5.93;100.00;99600.47;6172967;28;20054;-73
2022/11/23 03:18:30;;;;;;;2.63;0.80;;;;;;;5.93;100.00;99603.06;6173754;28;20051;-73
2022/11/23 03:21:31;;;;;;;1.70;0.85;;;;;;;5.91;100.00;99591.03;6177636;28;20057;-74
2022/11/23 03:24:33;;;;;;;1.35;0.80;;;;;;;5.88;100.00;99602.44;6177893;28;20043;-73
2022/11/23 03:27:37;;;;;;;0.77;0.55;;;;;;;5.89;100.00;99598.91;6178682;28;20062;-73
2022/11/23 03:30:39;;;;;;;7.68;0.88;;;;;;;5.90;100.00;99597.13;6177837;28;20054;-74
2022/11/23 03:33:40;;;;;;;0.55;0.55;;;;;;;5.89;100.00;99598.91;6178239;28;20493;-73
2022/11/23 03:36:41;;;;;;;1.40;1.00;;;;;;;5.90;100.00;99600.59;6178310;28;20050;-74
2022/11/23 03:39:43;;;;;;;3.53;0.88;;;;;;;5.90;100.00;99597.97;6178288;28;20062;-73
2022/11/23 03:42:46;;;;;;;3.13;1.08;;;;;;;5.90;100.00;99602.34;6177919;28;20058;-73
2022/11/23 03:45:47;;;;;;;0.80;0.80;;;;;;;5.89;100.00;99606.72;6177674;28;20053;-74
2022/11/23 03:48:48;;;;;;;1.40;0.77;;;;;;;5.90;100.00;99605.81;6175562;28;20051;-73
2022/11/23 03:51:50;;;;;;;2.10;0.90;;;;;;;5.90;100.00;99605.81;6177549;28;20416;-74
2022/11/23 03:54:51;;;;;;;1.00;0.90;;;;;;;5.93;100.00;99608.28;6177276;28;20058;-74
2022/11/23 03:57:58;;;;;;;1.92;0.68;;;;;;;5.95;100.00;99613.41;6177905;28;20065;-73
2022/11/23 04:00:59;;;;;;;1.42;0.80;;;;;;;5.99;100.00;99614.94;6177269;28;20050;-74
2022/11/23 04:04:01;;;;;;;1.08;0.80;;;;;;;5.99;100.00;99613.19;6177445;28;20062;-74
2022/11/23 04:07:02;;;;;;;1.23;0.88;;;;;;;6.02;100.00;99614.78;6177422;28;20058;-73
2022/11/23 04:10:04;;;;;;;2.40;0.73;;;;;;;6.00;100.00;99614.03;6177260;28;20058;-73
2022/11/23 04:13:07;;;;;;;1.88;1.00;;;;;;;5.99;100.00;99617.56;6177375;28;20053;-74
2022/11/23 04:16:09;;;;;;;2.95;1.10;;;;;;;6.03;100.00;99621.69;6176791;28;20051;-73
2022/11/23 04:19:10;;;;;;;4.55;1.38;;;;;;;6.06;100.00;99619.75;6177354;28;20062;-73
2022/11/23 04:22:12;;;;;;;3.30;0.95;;;;;;;6.07;100.00;99618.00;6177068;28;20503;-74
2022/11/23 04:25:13;;;;;;;2.45;1.00;;;;;;;6.09;100.00;99609.19;6176912;28;20047;-74
2022/11/23 04:28:16;;;;;;;2.40;1.00;;;;;;;6.09;100.00;99617.00;6176973;28;20054;-74
2022/11/23 04:31:17;;;;;;;1.80;1.10;;;;;;;6.11;100.00;99616.91;6175340;28;20074;-73
2022/11/23 04:34:19;;;;;;;2.08;1.00;;;;;;;6.15;100.00;99609.78;6176669;28;20047;-74
2022/11/23 04:37:21;;;;;;;7.15;0.88;;;;;;;6.17;100.00;99626.16;6177174;28;20047;-74
2022/11/23 04:40:22;;;;;;;2.63;1.23;;;;;;;6.18;100.00;99613.06;6176356;28;20515;-73
2022/11/23 04:43:25;;;;;;;3.10;1.30;;;;;;;6.18;100.00;99623.50;6176732;28;20054;-73
2022/11/23 04:46:26;;;;;;;1.48;0.90;;;;;;;6.19;100.00;99611.28;6176008;28;20055;-74
2022/11/23 04:49:28;;;;;;;3.40;1.05;;;;;;;6.16;100.00;99616.66;6184154;28;20053;-74
2022/11/23 04:52:29;;;;;;;5.35;1.38;;;;;;;6.13;100.00;99617.66;6187651;28;20514;-74
2022/11/23 04:55:31;;;;;;;1.48;1.00;;;;;;;6.13;100.00;99616.81;6185053;28;20042;-74
2022/11/23 04:58:35;;;;;;;4.82;1.15;;;;;;;6.14;100.00;99624.59;6188632;28;20050;-73
2022/11/23 05:01:36;;;;;;;3.10;1.10;;;;;;;6.14;100.00;99621.97;6186272;28;20051;-74
2022/11/23 05:04:38;;;;;;;1.10;0.68;;;;;;;6.15;100.00;99626.25;6197017;28;20140;-73
2022/11/23 05:07:39;;;;;;;3.58;0.80;;;;;;;6.14;100.00;99618.53;6200047;28;20053;-75
2022/11/23 05:10:40;;;;;;;1.60;0.88;;;;;;;6.18;100.00;99630.50;6192948;28;20053;-74
2022/11/23 05:13:43;;;;;;;5.15;0.75;;;;;;;6.19;100.00;99626.94;6181349;28;20043;-73
2022/11/23 05:16:45;;;;;;;2.00;0.90;;;;;;;6.18;100.00;99633.09;6185880;28;20513;-74
2022/11/23 05:19:46;;;;;;;2.53;0.95;;;;;;;6.20;100.00;99631.22;6188651;28;20046;-73
2022/11/23 05:22:48;;;;;;;2.08;0.93;;;;;;;6.21;100.00;99633.75;6196544;28;20050;-74
2022/11/23 05:25:49;;;;;;;5.00;0.90;;;;;;;6.24;100.00;99633.59;6188235;28;20054;-74
2022/11/23 05:28:52;;;;;;;4.35;2.08;;;;;;;6.22;100.00;99629.38;6198485;28;20042;-73
2022/11/23 05:31:54;;;;;;;2.42;1.10;;;;;;;6.21;100.00;99620.72;6187640;28;20429;-73
2022/11/23 05:34:55;;;;;;;2.70;1.13;;;;;;;6.21;100.00;99623.31;6192940;28;20421;-75
2022/11/23 05:37:57;;;;;;;2.88;0.95;;;;;;;6.19;100.00;99630.41;6199831;28;20053;-74
2022/11/23 05:40:58;;;;;;;1.52;1.00;;;;;;;6.20;100.00;99626.00;6198998;28;20054;-73
2022/11/23 05:44:01;;;;;;;3.25;1.30;;;;;;;6.19;100.00;99634.78;6198013;28;20418;-74
2022/11/23 05:47:02;;;;;;;2.03;1.00;;;;;;;6.20;100.00;99634.69;6199084;28;20097;-74
2022/11/23 05:50:05;;;;;;;4.45;1.15;;;;;;;6.21;100.00;99638.97;6199099;28;20065;-73
2022/11/23 05:53:06;;;;;;;2.58;0.93;;;;;;;6.20;100.00;99639.91;6199294;28;20050;-74
2022/11/23 05:56:08;;;;;;;2.60;1.13;;;;;;;6.23;100.00;99641.50;6198265;28;20049;-74
2022/11/23 05:59:12;;;;;;;1.08;0.80;;;;;;;6.25;100.00;99642.25;6199313;28;20136;-74
2022/11/23 06:02:13;;;;;;;2.95;0.98;;;;;;;6.25;100.00;99642.25;6198821;28;20062;-73
2022/11/23 06:05:14;;;;;;;1.95;1.02;;;;;;;6.22;100.00;99640.69;6198589;28;20051;-73
2022/11/23 06:08:16;;;;;;;2.95;1.27;;;;;;;6.24;100.00;99644.03;6198901;28;20057;-74
2022/11/23 06:11:17;;;;;;;1.67;1.17;;;;;;;6.20;100.00;99650.34;6198486;28;20054;-73
2022/11/23 06:14:20;;;;;;;7.20;1.30;;;;;;;6.14;100.00;99655.03;6198359;28;20418;-74
2022/11/23 06:17:22;;;;;;;1.70;1.10;;;;;;;6.11;100.00;99650.81;6198457;28;20054;-73
2022/11/23 06:20:24;;;;;;;2.55;1.00;;;;;;;6.13;100.00;99659.41;6198324;28;20058;-74
2022/11/23 06:23:25;;;;;;;5.93;0.98;;;;;;;6.11;100.00;99658.66;6198471;28;20414;-73
2022/11/23 06:26:26;;;;;;;3.20;1.00;;;;;;;6.12;100.00;99659.47;6197893;28;20050;-73
2022/11/23 06:29:29;;;;;;;3.38;1.10;;;;;;;6.11;100.00;99656.03;6198353;28;20053;-74
2022/11/23 06:32:30;;;;;;;2.17;1.13;;;;;;;6.10;100.00;99663.03;6198315;28;20093;-74
2022/11/23 06:35:32;;;;;;;2.42;1.23;;;;;;;6.12;100.00;99657.72;6197884;28;20046;-74
2022/11/23 06:38:33;;;;;;;1.67;1.30;;;;;;;6.13;100.00;99669.81;6198477;28;20054;-74
2022/11/23 06:41:35;;;;;;;1.50;0.80;;;;;;;6.14;100.00;99665.47;6198066;28;20054;-73
2022/11/23 06:44:37;;;;;;;1.17;1.00;;;;;;;6.09;100.00;99673.53;6198051;28;20058;-74
2022/11/23 06:47:39;;;;;;;1.98;1.10;;;;;;;6.13;100.00;99676.81;6197978;28;20046;-73
2022/11/23 06:50:40;;;;;;;1.98;1.42;;;;;;;6.14;100.00;99683.75;6197832;28;20053;-74
2022/11/23 06:53:42;;;;;;;19.02;1.13;;;;;;;6.09;100.00;99676.16;6197238;28;20057;-74
2022/11/23 06:56:44;;;;;;;1.40;1.00;;;;;;;6.03;100.00;99676.44;6197751;28;20054;-74
2022/11/23 06:59:47;;;;;;;1.38;1.00;;;;;;;5.99;100.00;99673.16;6197616;28;20054;-74
2022/11/23 07:02:52;;;;;;;1.67;1.00;;;;;;;6.02;100.00;99682.59;6198042;28;20061;-74
2022/11/23 07:05:53;;;;;;;2.60;1.20;;;;;;;6.00;100.00;99681.84;6197457;28;20078;-74
2022/11/23 07:08:55;;;;;;;2.88;1.48;;;;;;;6.00;100.00;99682.69;6198041;28;20055;-74
2022/11/23 07:11:56;;;;;;;3.25;1.30;;;;;;;5.95;100.00;99683.81;6197467;28;20054;-74
2022/11/23 07:14:59;;;;;;;2.97;1.25;;;;;;;5.95;100.00;99687.31;6197387;28;20054;-74
2022/11/23 07:18:01;;;;;;;7.30;1.80;;;;;;;5.94;100.00;99688.19;6197882;28;20062;-74
2022/11/23 07:21:02;;;;;;;8.93;1.70;;;;;;;5.93;100.00;99689.13;6197303;28;20465;-74
2022/11/23 07:24:04;;;;;;;3.60;1.35;;;;;;;6.00;100.00;99700.94;6197432;28;20061;-74
2022/11/23 07:27:05;;;;;;;3.78;1.38;;;;;;;6.04;100.00;99697.25;6197451;28;20046;-74
2022/11/23 07:30:10;;;;;;;3.17;1.27;;;;;;;6.07;100.00;99704.91;6197406;28;20050;-74
2022/11/23 07:33:12;;;;;;;1.00;0.90;;;;;;;6.09;100.00;99692.63;6197407;28;20054;-74
2022/11/23 07:36:14;;;;;;;1.88;1.10;;;;;;;6.13;100.00;99695.91;6197213;28;20050;-74
2022/11/23 07:39:15;;;;;;;1.40;1.10;;;;;;;6.17;100.00;99707.88;6197272;28;20418;-74
2022/11/23 07:42:17;;;;;;;1.73;0.95;;;;;;;6.22;100.00;99710.25;6197352;28;20050;-74
2022/11/23 07:45:19;;;;;;;1.95;1.20;;;;;;;6.29;100.00;99716.84;6196872;28;20530;-74
2022/11/23 07:48:21;;;;;;;2.63;1.05;;;;;;;6.31;100.00;99712.38;6197621;28;20061;-73
2022/11/23 07:51:22;;;;;;;3.33;1.40;;;;;;;6.35;100.00;99714.75;6196974;28;20425;-74
2022/11/23 07:54:24;;;;;;;1.50;1.00;;;;;;;6.34;100.00;99715.66;6196879;28;20061;-73
2022/11/23 07:57:25;;;;;;;3.22;1.58;;;;;;;6.34;100.00;99727.88;6197356;28;20073;-74
2022/11/23 08:00:29;;;;;;;2.72;1.33;;;;;;;6.35;100.00;99721.72;6197147;28;20058;-74
2022/11/23 08:03:30;;;;;;;5.85;1.52;;;;;;;6.37;100.00;99725.13;6197409;28;20054;-74
2022/11/23 08:06:32;;;;;;;1.30;1.17;;;;;;;6.43;100.00;99727.41;6197381;28;20087;-74
2022/11/23 08:09:33;;;;;;;1.58;1.20;;;;;;;6.47;100.00;99731.53;6201758;28;20054;-73
2022/11/23 08:12:35;;;;;;;2.50;1.50;;;;;;;6.48;100.00;99730.59;6201232;28;20054;-74
2022/11/23 08:15:37;;;;;;;3.92;1.80;;;;;;;6.46;100.00;99729.84;6201282;28;20050;-73
2022/11/23 08:18:39;;;;;;;4.55;1.00;;;;;;;6.42;100.00;99733.53;6201549;28;20503;-70
2022/11/23 08:21:40;;;;;;;6.63;1.55;;;;;;;6.43;100.00;99742.22;6197062;28;20062;-70
2022/11/23 08:24:42;;;;;;;5.90;1.50;;;;;;;6.47;100.00;99739.34;6200643;28;20051;-71
2022/11/23 08:27:43;;;;;;;3.13;1.23;;;;;;;6.48;100.00;99740.19;6200935;28;20047;-69
2022/11/23 08:30:46;;;;;;;5.43;1.58;;;;;;;6.51;100.00;99737.44;6200664;28;20252;-70
2022/11/23 08:33:48;;;;;;;6.22;1.48;;;;;;;6.58;100.00;99742.22;6200536;28;20050;-69
2022/11/23 08:36:49;;;;;;;3.42;1.20;;;;;;;6.66;100.00;99744.44;6200760;28;20050;-70
2022/11/23 08:39:51;;;;;;;2.47;1.00;;;;;;;6.69;100.00;99741.69;6200279;28;20058;-70
2022/11/23 08:42:52;;;;;;;1.30;1.00;;;;;;;6.69;100.00;99739.06;6183860;28;20065;-70
2022/11/23 08:45:55;;;;;;;1.33;0.85;;;;;;;6.74;100.00;99746.66;6175989;28;20421;-72
2022/11/23 08:48:57;;;;;;;1.73;0.90;;;;;;;6.73;100.00;99748.44;6176336;28;20494;-70
2022/11/23 08:51:59;;;;;;;2.47;1.25;;;;;;;6.76;100.00;99747.41;6196062;28;20046;-70
2022/11/23 08:55:00;;;;;;;1.88;1.45;;;;;;;6.78;100.00;99746.41;6200068;28;20053;-70
2022/11/23 08:58:02;;;;;;;3.25;1.27;;;;;;;6.83;100.00;99746.16;6200378;28;20454;-69
2022/11/23 09:01:09;;;;;;;1.55;0.70;;;;;;;6.85;100.00;99749.53;6190156;28;20047;-70
2022/11/23 09:04:10;;;;;;;3.53;1.05;;;;;;;6.88;100.00;99756.34;6199588;28;20078;-72
2022/11/23 09:07:12;;;;;;;6.97;1.63;;;;;;;6.91;100.00;99743.16;6199943;28;20053;-70
2022/11/23 09:10:13;;;;;;;3.75;1.10;;;;;;;6.91;100.00;99751.81;6199772;28;20050;-70
2022/11/23 09:13:15;;;;;;;6.68;1.10;;;;;;;6.95;100.00;99752.47;6200126;28;20501;-72
2022/11/23 09:16:18;;;;;;;4.45;0.85;;;;;;;6.99;100.00;99748.78;6199662;28;20061;-69
2022/11/23 09:19:20;;;;;;;6.13;1.33;;;;;;;7.02;100.00;99752.06;6199113;28;20057;-72
2022/11/23 09:22:21;;;;;;;7.50;1.23;;;;;;;7.10;100.00;99756.88;6199590;28;20054;-72
2022/11/23 09:25:24;;;;;;;6.85;1.05;;;;;;;7.17;100.00;99754.75;6199267;28;20052;-70
2022/11/23 09:28:26;;;;;;;1.95;0.88;;;;;;;7.20;100.00;99757.22;6200015;28;20457;-70
2022/11/23 09:31:29;;;;;;;1.10;0.90;;;;;;;7.21;100.00;99759.72;6199291;28;20046;-72
2022/11/23 09:34:30;;;;;;;3.58;1.23;;;;;;;7.23;100.00;99754.44;6199110;28;20054;-70
2022/11/23 09:37:32;;;;;;;1.15;0.82;;;;;;;7.33;100.00;99758.22;6199306;28;20046;-72
2022/11/23 09:40:37;;;;;;;1.52;1.13;;;;;;;7.38;100.00;99764.88;6199040;28;20046;-72
2022/11/23 09:43:51;;;;;;;7.03;1.65;;;;;;;7.47;100.00;99763.50;6199468;28;20058;-72
2022/11/23 09:47:08;;;;;;;3.10;1.30;;;;;;;7.48;100.00;99761.72;6199389;28;20494;-71
2022/11/23 09:50:15;;;;;;;4.57;1.80;;;;;;;7.54;100.00;99762.25;6199027;28;20047;-72
2022/11/23 09:53:22;;;;;;;2.83;1.08;;;;;;;7.64;100.00;99762.56;6199386;28;20050;-71
2022/11/23 09:56:27;;;;;;;3.60;1.00;;;;;;;7.67;100.00;99758.91;6198561;28;20418;-72
2022/11/23 09:59:40;;;;;;;5.10;1.30;;;;;;;7.72;100.00;99767.34;6198411;28;20069;-72
2022/11/23 10:02:43;;;;;;;2.63;1.20;;;;;;;7.65;100.00;99769.47;6193701;28;20275;-72
2022/11/23 10:05:57;;;;;;;1.42;0.98;;;;;;;7.60;100.00;99771.50;6198019;28;20429;-72
2022/11/23 10:09:18;;;;;;;4.68;1.10;;;;;;;7.65;100.00;99774.69;6203945;28;20053;-72
2022/11/23 10:12:35;;;;;;;2.10;0.90;;;;;;;7.77;100.00;99762.72;6202221;28;20050;-72
2022/11/23 10:15:46;;;;;;;1.75;1.00;;;;;;;7.83;100.00;99772.81;6197972;28;20513;-72
2022/11/23 10:18:57;;;;;;;4.90;1.17;;;;;;;8.03;100.00;99774.25;6198783;28;20050;-72
2022/11/23 10:22:09;;;;;;;2.10;1.05;;;;;;;8.21;100.00;99773.16;6197889;28;20054;-72
2022/11/23 10:25:16;;;;;;;4.80;0.90;;;;;;;8.37;100.00;99775.78;6198846;28;20057;-71
2022/11/23 10:28:19;;;;;;;4.00;0.85;;;;;;;8.48;100.00;99768.09;6198768;28;20054;-72
2022/11/23 10:31:23;;;;;;;10.20;1.30;;;;;;;8.47;100.00;99771.66;6189836;28;20057;-73
2022/11/23 10:34:42;;;;;;;1.13;0.82;;;;;;;8.48;100.00;99773.34;6197776;28;20054;-72
2022/11/23 10:37:44;;;;;;;5.72;1.00;;;;;;;8.42;100.00;99776.34;6197892;28;20043;-72
2022/11/23 10:41:02;;;;;;;7.90;1.20;;;;;;;8.49;100.00;99777.63;6197527;28;20050;-72
2022/11/23 10:44:10;;;;;;;1.38;0.65;;;;;;;8.62;100.00;99775.94;6197545;28;20108;-72
2022/11/23 10:47:13;;;;;;;1.90;1.00;;;;;;;8.69;100.00;99779.06;6197956;28;20050;-71
2022/11/23 10:50:26;;;;;;;0.85;0.63;;;;;;;8.64;100.00;99778.50;6197673;28;20053;-72
2022/11/23 10:53:29;;;;;;;3.92;0.93;;;;;;;8.59;100.00;99777.94;6197899;28;20418;-72
2022/11/23 10:56:32;;;;;;;2.60;1.30;;;;;;;8.53;100.00;99773.06;6197403;28;20043;-72
2022/11/23 10:59:36;;;;;;;6.20;0.90;;;;;;;8.56;100.00;99776.34;6197955;28;20052;-72
2022/11/23 11:02:39;;;;;;;2.72;0.90;;;;;;;8.64;100.00;99784.56;6197654;28;20053;-72
2022/11/23 11:05:50;;;;;;;4.47;1.00;;;;;;;8.72;100.00;99772.78;6197369;28;20049;-72
2022/11/23 11:08:55;;;;;;;3.08;0.80;;;;;;;8.84;100.00;99766.78;6197961;28;20051;-72
2022/11/23 11:11:56;;;;;;;0.93;0.60;;;;;;;9.00;100.00;99766.69;6197251;28;20054;-72
2022/11/23 11:15:02;;;;;;;7.93;3.20;;;;;;;9.34;100.00;99760.97;6194334;28;20054;-72
2022/11/23 11:18:03;;;;;;;2.78;1.00;;;;;;;9.54;100.00;99762.34;6187911;28;20038;-71
2022/11/23 11:21:18;;;;;;;2.97;1.23;;;;;;;9.68;100.00;99750.94;6197239;28;20439;-70
2022/11/23 11:24:30;;;;;;;1.40;0.50;;;;;;;9.68;100.00;99745.69;6197021;28;20062;-70
2022/11/23 11:27:33;;;;;;;7.70;1.25;;;;;;;9.70;100.00;99751.66;6197732;28;20048;-70
2022/11/23 11:30:46;;;;;;;0.77;0.60;;;;;;;9.59;100.00;99751.53;6196531;28;20065;-70
2022/11/23 11:33:54;;;;;;;4.18;0.70;;;;;;;9.47;100.00;99747.09;6197204;28;20054;-70
2022/11/23 11:37:07;;;;;;;1.92;0.65;;;;;;;9.33;100.00;99748.81;6192332;28;20046;-71
2022/11/23 11:40:17;;;;;;;2.20;0.60;;;;;;;9.13;100.00;99746.63;6175985;28;20047;-71
2022/11/23 11:43:24;;;;;;;0.57;0.50;;;;;;;9.06;100.00;99748.78;6177979;28;20050;-70
2022/11/23 11:46:33;;;;;;;2.83;0.60;;;;;;;8.98;100.00;99747.59;6194996;28;20058;-70
2022/11/23 11:49:41;;;;;;;2.22;0.40;;;;;;;8.89;100.00;99747.22;6202223;28;20062;-70
2022/11/23 11:52:46;;;;;;;2.03;0.90;;;;;;;8.89;100.00;99747.22;6201723;28;20409;-69
2022/11/23 11:55:53;;;;;;;1.88;0.82;;;;;;;9.15;100.00;99744.75;6201425;28;20046;-70
2022/11/23 11:58:59;;;;;;;3.35;1.13;;;;;;;9.44;100.00;99732.38;6201771;28;20050;-70
2022/11/23 12:02:15;;;;;;;2.38;0.60;;;;;;;9.79;100.00;99742.34;6201350;28;20069;-70
2022/11/23 12:05:24;;;;;;;1.20;0.50;;;;;;;9.95;100.00;99727.28;6201382;28;20054;-70
2022/11/23 12:08:37;;;;;;;5.20;0.35;;;;;;;9.81;100.00;99733.44;6201363;28;20054;-70
2022/11/23 12:11:39;;;;;;;1.67;0.68;;;;;;;9.66;100.00;99727.41;6201522;28;20054;-70
2022/11/23 12:14:40;;;;;;;1.55;0.55;;;;;;;9.63;100.00;99726.81;6200937;28;20050;-70
2022/11/23 12:17:57;;;;;;;1.15;0.73;;;;;;;9.59;100.00;99727.94;6201147;28;20054;-70
2022/11/23 12:21:03;;;;;;;2.97;0.60;;;;;;;9.55;100.00;99724.66;6198959;28;20053;-70
2022/11/23 12:24:16;;;;;;;1.20;0.50;;;;;;;9.54;100.00;99720.38;6202113;28;20045;-71
2022/11/23 12:27:28;;;;;;;1.95;0.75;;;;;;;9.73;100.00;99727.03;6208406;28;20058;-70
2022/11/23 12:30:35;;;;;;;2.10;0.50;;;;;;;9.91;100.00;99724.03;6200621;28;20064;-70
2022/11/23 12:34:07;;;;;;;3.25;0.70;;;;;;;10.02;100.00;99722.44;6202902;28;20077;-70
2022/11/23 12:37:34;;;;;;;4.00;1.15;;;;;;;10.08;100.00;99722.88;6188009;28;20047;-70
2022/11/23 12:40:48;;;;;;;6.93;0.65;;;;;;;10.24;100.00;99719.22;6200218;28;20054;-70
2022/11/23 12:44:03;;;;;;;0.95;0.45;;;;;;;10.18;100.00;99717.84;6193698;28;20061;-69
2022/11/23 12:47:14;;;;;;;2.50;0.80;;;;;;;10.06;100.00;99724.75;6200755;28;20046;-70
2022/11/23 12:50:26;;;;;;;4.32;1.10;;;;;;;10.01;100.00;99716.38;6200106;28;20062;-70
2022/11/23 12:53:41;;;;;;;3.95;0.80;;;;;;;10.00;100.00;99721.72;6199484;28;20054;-70
2022/11/23 12:57:07;;;;;;;1.92;0.65;;;;;;;9.99;100.00;99720.88;6200720;28;20051;-70
2022/11/23 13:00:15;;;;;;;4.38;0.80;;;;;;;10.05;100.00;99717.00;6200036;28;20061;-70
2022/11/23 13:03:52;;;;;;;1.10;0.70;;;;;;;10.07;100.00;99718.56;6200357;28;20061;-71
2022/11/23 13:07:23;;;;;;;3.53;0.70;;;;;;;10.15;100.00;99713.63;6199978;28;20073;-70
2022/11/23 13:10:57;;;;;;;1.40;0.77;;;;;;;10.14;100.00;99711.13;6199612;28;20399;-70
2022/11/23 13:14:15;;;;;;;2.58;1.50;;;;;;;10.04;100.00;99708.28;6199999;28;20050;-70
2022/11/23 13:17:29;;;;;;;1.13;0.52;;;;;;;9.97;100.00;99709.63;6199682;28;20449;-69
2022/11/23 13:20:49;;;;;;;0.30;0.30;;;;;;;9.97;100.00;99700.94;6199768;28;20429;-69
2022/11/23 13:23:50;;;;;;;1.75;0.70;;;;;;;9.86;100.00;99706.91;6199352;28;20429;-69
2022/11/23 13:27:25;;;;;;;6.32;0.80;;;;;;;9.69;100.00;99696.69;6199897;28;20487;-69
2022/11/23 13:30:34;;;;;;;1.95;0.60;;;;;;;9.55;100.00;99703.69;6188745;28;20682;-70
2022/11/23 13:33:37;;;;;;;9.07;2.92;;;;;;;9.47;100.00;99699.88;6175304;28;20069;-70
2022/11/23 13:36:43;;;;;;;7.93;0.95;;;;;;;9.39;100.00;99700.38;6175170;28;20510;-71
2022/11/23 13:40:03;;;;;;;1.33;0.82;;;;;;;9.28;100.00;99692.38;6175005;28;20062;-70
2022/11/23 13:43:13;;;;;;;2.83;0.95;;;;;;;9.26;100.00;99695.09;6175841;28;20055;-71
2022/11/23 13:46:27;;;;;;;2.75;0.75;;;;;;;9.22;100.00;99687.50;6192933;28;20125;-70
2022/11/23 13:49:31;;;;;;;2.85;0.73;;;;;;;9.13;100.00;99681.94;6199508;28;20176;-70
2022/11/23 13:52:35;;;;;;;3.30;0.60;;;;;;;9.05;100.00;99675.53;6198844;28;20046;-70
2022/11/23 13:55:38;;;;;;;3.65;0.70;;;;;;;8.99;100.00;99683.75;6198832;28;20046;-70
2022/11/23 13:58:40;;;;;;;7.35;0.63;;;;;;;8.92;100.00;99678.06;6199093;28;20050;-70
2022/11/23 14:02:24;;;;;;;4.30;0.68;;;;;;;8.93;100.00;99678.91;6198602;28;20426;-70
2022/11/23 14:05:55;;;;;;;1.00;0.68;;;;;;;8.91;100.00;99678.19;6198312;28;20053;-70
2022/11/23 14:09:02;;;;;;;3.00;0.93;;;;;;;8.86;100.00;99679.31;6198955;28;20057;-70
2022/11/23 14:12:16;;;;;;;1.85;0.80;;;;;;;8.86;100.00;99676.69;6198756;28;20050;-70
2022/11/23 14:15:20;;;;;;;1.50;0.52;;;;;;;8.92;100.00;99679.84;6198125;28;20050;-70
2022/11/23 14:18:40;;;;;;;10.32;1.05;;;;;;;8.89;100.00;99675.63;6198986;28;20042;-70
2022/11/23 14:21:53;;;;;;;2.15;0.80;;;;;;;8.84;100.00;99678.56;6198055;28;20050;-70
2022/11/23 14:25:12;;;;;;;2.72;1.00;;;;;;;8.74;100.00;99666.16;6198257;28;20153;-70
2022/11/23 14:28:28;;;;;;;4.47;0.75;;;;;;;8.73;100.00;99665.31;6198444;28;20047;-70
2022/11/23 14:31:38;;;;;;;3.45;0.82;;;;;;;8.71;100.00;99674.19;6197786;28;20050;-70